createdAt,value
2022-08-10T00:01:11.319Z,0.20
2022-08-10T00:05:19.023Z,2.92
2022-08-10T00:09:26.005Z,2.63
2022-08-10T00:13:32.765Z,0.40
2022-08-10T00:17:39.534Z,0.28
2022-08-10T00:21:47.277Z,2.60
2022-08-10T00:25:54.219Z,1.23
2022-08-10T00:30:01.512Z,0.28
2022-08-10T00:34:08.371Z,0.35
2022-08-10T00:38:15.192Z,1.10
2022-08-10T00:42:21.947Z,0.40
2022-08-10T00:46:28.730Z,0.50
2022-08-10T00:50:35.640Z,0.88
2022-08-10T00:54:43.492Z,0.60
2022-08-10T00:58:50.265Z,0.40
2022-08-10T01:02:57.233Z,0.40
2022-08-10T01:07:41.779Z,0.40
2022-08-10T01:12:34.271Z,0.65
2022-08-10T01:16:37.592Z,4.23
2022-08-10T01:21:25.260Z,1.95
2022-08-10T01:30:18.943Z,1.13
2022-08-10T01:38:42.626Z,0.40
2022-08-10T01:42:51.419Z,0.75
2022-08-10T01:47:33.072Z,0.88
2022-08-10T01:51:51.477Z,3.27
2022-08-10T01:55:59.083Z,0.50
2022-08-10T02:00:07.057Z,0.70
2022-08-10T02:04:16.454Z,1.83
2022-08-10T02:08:25.125Z,1.25
2022-08-10T02:12:33.810Z,0.60
2022-08-10T02:16:44.523Z,2.25
2022-08-10T02:20:53.274Z,4.55
2022-08-10T02:25:01.558Z,1.67
2022-08-10T02:29:12.190Z,0.80
2022-08-10T02:33:20.865Z,1.95
2022-08-10T02:37:31.486Z,0.80
2022-08-10T02:45:14.589Z,2.58
2022-08-10T02:46:28.651Z,1.63
2022-08-10T02:50:37.875Z,3.30
2022-08-10T02:54:53.417Z,0.65
2022-08-10T02:59:08.366Z,2.83
2022-08-10T03:03:20.248Z,2.25
2022-08-10T03:07:44.064Z,2.00
2022-08-10T03:12:36.227Z,0.82
2022-08-10T03:16:22.651Z,0.88
2022-08-10T03:20:40.115Z,1.02
2022-08-10T03:24:47.917Z,3.22
2022-08-10T03:28:54.797Z,2.00
2022-08-10T03:33:05.283Z,2.80
2022-08-10T03:37:12.035Z,0.88
2022-08-10T03:41:23.941Z,1.70
2022-08-10T03:45:54.227Z,5.70
2022-08-10T03:50:28.900Z,2.97
2022-08-10T03:54:31.341Z,1.35
2022-08-10T03:58:38.104Z,1.13
2022-08-10T04:02:49.411Z,1.80
2022-08-10T04:06:57.995Z,3.07
2022-08-10T04:11:04.743Z,1.98
2022-08-10T04:15:11.626Z,1.48
2022-08-10T04:19:20.181Z,3.60
2022-08-10T04:23:30.531Z,2.10
2022-08-10T04:27:37.570Z,2.38
2022-08-10T04:31:45.937Z,1.45
2022-08-10T04:35:53.685Z,2.30
2022-08-10T04:40:01.366Z,4.50
2022-08-10T04:44:08.232Z,4.00
2022-08-10T04:48:36.501Z,7.78
2022-08-10T04:52:42.157Z,4.63
2022-08-10T04:56:48.889Z,2.78
2022-08-10T05:00:55.773Z,2.60
2022-08-10T05:05:03.378Z,2.75
2022-08-10T05:09:10.359Z,4.05
2022-08-10T05:13:17.094Z,4.63
2022-08-10T05:17:24.253Z,2.72
2022-08-10T05:21:59.778Z,3.17
2022-08-10T05:25:57.703Z,2.80
2022-08-10T05:30:05.467Z,2.92
2022-08-10T05:34:20.519Z,6.68
2022-08-10T05:38:28.403Z,6.72
2022-08-10T05:42:35.536Z,6.47
2022-08-10T05:46:42.584Z,5.90
2022-08-10T05:50:49.567Z,11.25
2022-08-10T05:54:59.619Z,6.60
2022-08-10T05:59:14.053Z,15.15
2022-08-10T06:03:29.665Z,6.63
2022-08-10T06:07:44.671Z,11.15
2022-08-10T06:12:26.979Z,11.23
2022-08-10T06:16:21.313Z,7.80
2022-08-10T06:20:30.733Z,9.68
2022-08-10T06:25:04.591Z,10.73
2022-08-10T06:29:12.894Z,9.25
2022-08-10T06:33:23.329Z,9.93
2022-08-10T06:37:31.500Z,12.73
2022-08-10T06:41:57.695Z,10.20
2022-08-10T06:46:16.451Z,10.45
2022-08-10T06:54:55.688Z,12.73
2022-08-10T06:59:21.710Z,15.38
2022-08-10T07:03:36.567Z,12.88
2022-08-10T07:07:45.783Z,9.73
2022-08-10T07:11:53.767Z,9.35
2022-08-10T07:16:01.584Z,10.27
2022-08-10T07:20:09.916Z,8.63
2022-08-10T07:24:17.614Z,9.70
2022-08-10T07:28:25.142Z,7.35
2022-08-10T07:32:33.367Z,8.93
2022-08-10T07:36:42.714Z,10.13
2022-08-10T07:40:51.885Z,8.65
2022-08-10T07:44:58.981Z,11.52
2022-08-10T07:49:19.043Z,8.68
2022-08-10T07:53:37.168Z,8.23
2022-08-10T07:57:46.628Z,5.45
2022-08-10T08:01:55.259Z,7.20
2022-08-10T08:06:08.995Z,7.28
2022-08-10T08:10:22.219Z,8.50
2022-08-10T08:14:33.324Z,7.10
2022-08-10T08:18:45.799Z,9.35
2022-08-10T08:24:13.656Z,8.35
2022-08-10T08:27:36.953Z,5.60
2022-08-10T08:32:00.852Z,6.45
2022-08-10T08:36:09.895Z,4.32
2022-08-10T08:40:37.004Z,2.13
2022-08-10T08:44:55.644Z,4.75
2022-08-10T08:50:04.779Z,5.18
2022-08-10T08:54:23.707Z,2.95
2022-08-10T08:58:47.625Z,6.15
2022-08-10T09:03:28.636Z,5.60
2022-08-10T09:08:01.540Z,3.63
2022-08-10T09:12:35.841Z,1.58
2022-08-10T09:16:59.243Z,5.82
2022-08-10T09:21:43.354Z,3.30
2022-08-10T09:26:20.006Z,3.60
2022-08-10T09:31:18.720Z,4.30
2022-08-10T09:36:21.608Z,3.15
2022-08-10T09:41:00.122Z,1.55
2022-08-10T09:45:12.601Z,2.25
2022-08-10T09:49:55.313Z,4.07
2022-08-10T09:54:34.937Z,2.88
2022-08-10T09:59:29.323Z,1.27
2022-08-10T10:07:49.565Z,1.40
2022-08-10T10:12:14.739Z,5.10
2022-08-10T10:16:40.485Z,0.90
2022-08-10T10:20:56.047Z,1.65
2022-08-10T10:25:20.632Z,2.47
2022-08-10T10:30:04.316Z,6.93
2022-08-10T10:34:18.021Z,1.65
2022-08-10T10:38:34.956Z,1.30
2022-08-10T10:43:20.979Z,0.35
2022-08-10T10:48:05.541Z,0.60
2022-08-10T10:52:43.562Z,0.90
2022-08-10T10:57:04.144Z,4.00
2022-08-10T11:01:30.337Z,1.40
2022-08-10T11:06:04.061Z,2.58
2022-08-10T11:10:32.996Z,0.73
2022-08-10T11:15:00.521Z,2.23
2022-08-10T11:20:00.379Z,1.42
2022-08-10T11:24:48.794Z,0.60
2022-08-10T11:29:14.578Z,0.57
2022-08-10T11:34:04.027Z,0.70
2022-08-10T11:38:29.989Z,1.17
2022-08-10T11:42:52.783Z,1.40
2022-08-10T11:47:20.777Z,1.17
2022-08-10T11:51:48.797Z,1.85
2022-08-10T11:55:58.207Z,2.05
2022-08-10T12:00:07.694Z,0.20
2022-08-10T12:04:16.499Z,0.75
2022-08-10T12:10:05.656Z,4.25
2022-08-10T12:13:15.132Z,0.50
2022-08-10T12:17:31.088Z,1.20
2022-08-10T12:21:46.462Z,4.72
2022-08-10T12:26:08.549Z,2.75
2022-08-10T12:30:17.205Z,2.85
2022-08-10T12:34:30.167Z,1.27
2022-08-10T12:38:49.555Z,3.20
2022-08-10T12:44:07.454Z,2.25
2022-08-10T12:47:59.871Z,0.73
2022-08-10T12:52:26.153Z,0.47
2022-08-10T12:56:39.888Z,0.73
2022-08-10T13:01:14.530Z,0.80
2022-08-10T13:05:17.174Z,2.60
2022-08-10T13:09:25.355Z,0.50
2022-08-10T13:13:39.747Z,5.32
2022-08-10T13:17:52.605Z,2.28
2022-08-10T13:22:02.908Z,2.47
2022-08-10T13:26:15.102Z,2.10
2022-08-10T13:30:37.409Z,1.95
2022-08-10T13:34:47.090Z,2.47
2022-08-10T13:38:56.606Z,4.03
2022-08-10T13:43:07.223Z,2.30
2022-08-10T13:51:53.640Z,1.52
2022-08-10T13:55:57.412Z,1.08
2022-08-10T14:00:34.568Z,1.05
2022-08-10T14:08:48.438Z,0.43
2022-08-10T14:12:56.988Z,0.22
2022-08-10T14:17:06.846Z,0.63
2022-08-10T14:21:15.040Z,1.20
2022-08-10T14:25:21.884Z,2.85
2022-08-10T14:29:29.952Z,0.30
2022-08-10T14:33:37.640Z,0.32
2022-08-10T14:37:57.380Z,0.82
2022-08-10T14:42:18.988Z,2.60
2022-08-10T14:46:32.915Z,1.85
2022-08-10T14:50:55.273Z,1.67
2022-08-10T14:55:04.818Z,1.45
2022-08-10T14:59:15.290Z,2.53
2022-08-10T15:04:02.395Z,1.75
2022-08-10T15:07:59.200Z,0.93
2022-08-10T15:12:15.901Z,1.33
2022-08-10T15:16:30.094Z,1.55
2022-08-10T15:20:39.151Z,3.28
2022-08-10T15:25:00.386Z,0.50
2022-08-10T15:29:23.950Z,1.13
2022-08-10T15:34:05.093Z,2.33
2022-08-10T15:38:16.445Z,2.80
2022-08-10T15:42:25.604Z,3.13
2022-08-10T15:46:41.540Z,0.50
2022-08-10T15:50:50.812Z,1.50
2022-08-10T15:55:56.480Z,1.90
2022-08-10T16:00:10.289Z,3.63
2022-08-10T16:04:31.935Z,0.15
2022-08-10T16:08:57.256Z,8.00
2022-08-10T16:14:00.025Z,0.22
2022-08-10T16:17:56.068Z,0.20
2022-08-10T16:22:36.574Z,3.22
2022-08-10T16:26:42.848Z,0.50
2022-08-10T16:30:53.188Z,8.02
2022-08-10T16:35:02.110Z,1.85
2022-08-10T16:40:00.145Z,2.05
2022-08-10T16:44:00.629Z,0.85
2022-08-10T16:48:09.232Z,0.67
2022-08-10T16:52:17.563Z,0.35
2022-08-10T16:56:32.579Z,0.82
2022-08-10T17:00:42.864Z,1.38
2022-08-10T17:04:52.744Z,0.82
2022-08-10T17:09:01.492Z,3.00
2022-08-10T17:13:10.456Z,0.25
2022-08-10T17:17:22.987Z,0.65
2022-08-10T17:21:37.279Z,0.55
2022-08-10T17:26:02.983Z,0.95
2022-08-10T17:30:16.123Z,2.05
2022-08-10T17:34:46.321Z,0.75
2022-08-10T17:38:54.612Z,0.70
2022-08-10T17:43:02.499Z,1.70
2022-08-10T17:47:11.740Z,3.83
2022-08-10T17:51:19.047Z,1.55
2022-08-10T17:55:35.473Z,3.90
2022-08-10T17:59:42.907Z,2.05
2022-08-10T18:03:52.737Z,0.40
2022-08-10T18:08:06.510Z,2.17
2022-08-10T18:12:21.547Z,0.80
2022-08-10T18:16:34.080Z,1.88
2022-08-10T18:20:42.456Z,1.13
2022-08-10T18:24:50.899Z,2.40
2022-08-10T18:28:58.177Z,2.63
2022-08-10T18:33:09.030Z,5.03
2022-08-10T18:37:20.789Z,1.58
2022-08-10T18:41:32.786Z,2.30
2022-08-10T18:45:43.692Z,2.58
2022-08-10T18:50:06.724Z,2.42
2022-08-10T18:54:44.756Z,3.38
2022-08-10T18:59:08.572Z,1.75
2022-08-10T19:03:37.174Z,4.35
2022-08-10T19:08:02.572Z,3.30
2022-08-10T19:12:30.027Z,4.07
2022-08-10T19:16:50.828Z,2.40
2022-08-10T19:21:00.835Z,1.75
2022-08-10T19:26:36.451Z,2.05
2022-08-10T19:30:17.648Z,1.98
2022-08-10T19:34:38.307Z,0.95
2022-08-10T19:39:04.311Z,1.52
2022-08-10T19:43:59.908Z,4.88
2022-08-10T19:48:18.970Z,1.48
2022-08-10T19:52:47.105Z,0.68
2022-08-10T19:57:14.682Z,4.35
2022-08-10T20:01:21.628Z,6.43
2022-08-10T20:05:33.019Z,3.03
2022-08-10T20:14:27.392Z,2.50
2022-08-10T20:18:46.280Z,2.25
2022-08-10T20:23:17.709Z,0.82
2022-08-10T20:27:56.605Z,2.28
2022-08-10T20:32:10.520Z,1.10
2022-08-10T20:36:25.778Z,0.90
2022-08-10T20:40:54.038Z,7.15
2022-08-10T20:45:21.847Z,2.15
2022-08-10T20:49:41.352Z,1.00
2022-08-10T20:53:53.370Z,3.40
2022-08-10T20:58:25.640Z,3.95
2022-08-10T21:02:58.585Z,4.53
2022-08-10T21:08:02.587Z,0.70
2022-08-10T21:12:21.603Z,1.45
2022-08-10T21:17:00.561Z,0.80
2022-08-10T21:25:41.745Z,1.27
2022-08-10T21:26:07.455Z,1.75
2022-08-10T21:30:17.794Z,2.92
2022-08-10T21:34:52.111Z,3.10
2022-08-10T21:39:06.777Z,3.25
2022-08-10T21:43:52.697Z,3.60
2022-08-10T21:48:39.005Z,2.65
2022-08-10T22:02:54.131Z,3.40
2022-08-10T22:07:23.973Z,0.52
2022-08-10T22:11:54.628Z,3.85
2022-08-10T22:16:25.091Z,4.00
2022-08-10T22:20:55.227Z,2.35
2022-08-10T22:25:55.223Z,2.85
2022-08-10T22:30:23.426Z,2.10
2022-08-10T22:31:27.082Z,2.83
2022-08-10T22:35:05.036Z,2.03
2022-08-10T22:40:11.545Z,9.70
2022-08-10T22:44:42.106Z,3.40
2022-08-10T22:49:01.325Z,1.23
2022-08-10T22:53:11.369Z,1.40
2022-08-10T22:57:37.217Z,3.40
2022-08-10T23:02:07.731Z,2.88
2022-08-10T23:10:29.090Z,2.25
2022-08-10T23:14:38.967Z,4.77
2022-08-10T23:19:10.580Z,4.45
2022-08-10T23:23:23.489Z,0.70
2022-08-10T23:27:37.442Z,2.05
2022-08-10T23:32:01.124Z,4.47
2022-08-10T23:36:33.596Z,2.90
2022-08-10T23:40:49.043Z,1.10
2022-08-10T23:44:59.471Z,3.97
2022-08-10T23:49:10.306Z,2.33
2022-08-10T23:53:25.131Z,2.53
2022-08-10T23:57:35.105Z,6.90
